Aviation Digital Data Service (ADDS)

Output produced by TAFs form (0354 UTC 19 February 2018)
found at http://www.aviationweather.gov/adds/tafs/
 
KBHM 190253Z 00000KT 10SM BKN055 OVC100 15/13 A3023 RMK AO2 SLP234 T01500128 52001
KBHM 182340Z 1900/1924 08005KT P6SM BKN015 OVC030 
     FM190100 13005KT P6SM OVC025 
     FM190400 14004KT P6SM BKN050 
     TEMPO 1911/1914 4SM BR OVC007 
     FM191600 17013KT P6SM BKN050